sensor_id;sensor_type;location;lat;lon;timestamp;temperature;humidity
20726;DHT22;10524;48.132;8.518;2023-08-06T00:00:16;11.10;99.90
20726;DHT22;10524;48.132;8.518;2023-08-06T00:02:42;11.00;99.90
20726;DHT22;10524;48.132;8.518;2023-08-06T00:05:07;10.90;99.90
20726;DHT22;10524;48.132;8.518;2023-08-06T00:07:33;10.90;99.90
20726;DHT22;10524;48.132;8.518;2023-08-06T00:09:59;10.80;99.90
20726;DHT22;10524;48.132;8.518;2023-08-06T00:12:24;10.70;99.90
20726;DHT22;10524;48.132;8.518;2023-08-06T00:14:51;10.70;99.90
20726;DHT22;10524;48.132;8.518;2023-08-06T00:17:17;10.70;99.90
20726;DHT22;10524;48.132;8.518;2023-08-06T00:19:42;10.60;99.90
20726;DHT22;10524;48.132;8.518;2023-08-06T00:22:08;10.60;99.90
20726;DHT22;10524;48.132;8.518;2023-08-06T00:24:34;10.60;99.90
20726;DHT22;10524;48.132;8.518;2023-08-06T00:27:00;10.70;99.90
20726;DHT22;10524;48.132;8.518;2023-08-06T00:29:26;10.80;99.90
20726;DHT22;10524;48.132;8.518;2023-08-06T00:31:52;11.00;99.90
20726;DHT22;10524;48.132;8.518;2023-08-06T00:34:17;11.10;99.90
20726;DHT22;10524;48.132;8.518;2023-08-06T00:36:43;11.20;99.90
20726;DHT22;10524;48.132;8.518;2023-08-06T00:39:09;11.20;99.90
20726;DHT22;10524;48.132;8.518;2023-08-06T00:41:34;11.30;99.90
20726;DHT22;10524;48.132;8.518;2023-08-06T00:44:00;11.30;99.90
20726;DHT22;10524;48.132;8.518;2023-08-06T00:46:26;11.30;99.90
20726;DHT22;10524;48.132;8.518;2023-08-06T00:48:52;11.20;99.90
20726;DHT22;10524;48.132;8.518;2023-08-06T00:51:18;11.10;99.90
20726;DHT22;10524;48.132;8.518;2023-08-06T00:53:46;11.20;99.90
20726;DHT22;10524;48.132;8.518;2023-08-06T00:56:12;11.20;99.90
20726;DHT22;10524;48.132;8.518;2023-08-06T00:58:39;11.20;99.90
20726;DHT22;10524;48.132;8.518;2023-08-06T01:01:05;11.20;99.90
20726;DHT22;10524;48.132;8.518;2023-08-06T01:03:30;11.20;99.90
20726;DHT22;10524;48.132;8.518;2023-08-06T01:05:56;11.20;99.90
20726;DHT22;10524;48.132;8.518;2023-08-06T01:08:43;11.10;99.90
20726;DHT22;10524;48.132;8.518;2023-08-06T01:11:35;11.10;99.90
20726;DHT22;10524;48.132;8.518;2023-08-06T01:14:12;10.90;99.90
20726;DHT22;10524;48.132;8.518;2023-08-06T01:16:42;10.80;99.90
20726;DHT22;10524;48.132;8.518;2023-08-06T01:19:18;10.70;99.90
20726;DHT22;10524;48.132;8.518;2023-08-06T01:21:44;10.60;99.90
20726;DHT22;10524;48.132;8.518;2023-08-06T01:24:10;10.60;99.90
20726;DHT22;10524;48.132;8.518;2023-08-06T01:26:44;10.60;99.90
20726;DHT22;10524;48.132;8.518;2023-08-06T01:29:41;10.60;99.90
20726;DHT22;10524;48.132;8.518;2023-08-06T01:32:12;10.60;99.90
20726;DHT22;10524;48.132;8.518;2023-08-06T01:34:41;10.50;99.90
20726;DHT22;10524;48.132;8.518;2023-08-06T01:37:07;10.40;99.90
20726;DHT22;10524;48.132;8.518;2023-08-06T01:39:33;10.40;99.90
20726;DHT22;10524;48.132;8.518;2023-08-06T01:41:59;10.30;99.90
20726;DHT22;10524;48.132;8.518;2023-08-06T01:44:25;10.30;99.90
20726;DHT22;10524;48.132;8.518;2023-08-06T01:46:51;10.30;99.90
20726;DHT22;10524;48.132;8.518;2023-08-06T01:49:16;10.20;99.90
20726;DHT22;10524;48.132;8.518;2023-08-06T01:51:42;10.10;99.90
20726;DHT22;10524;48.132;8.518;2023-08-06T01:54:07;10.30;99.90
20726;DHT22;10524;48.132;8.518;2023-08-06T01:56:33;10.40;99.90
20726;DHT22;10524;48.132;8.518;2023-08-06T01:58:59;10.40;99.90
20726;DHT22;10524;48.132;8.518;2023-08-06T02:01:24;10.40;99.90
20726;DHT22;10524;48.132;8.518;2023-08-06T02:03:50;10.50;99.90
20726;DHT22;10524;48.132;8.518;2023-08-06T02:06:17;10.60;99.90
20726;DHT22;10524;48.132;8.518;2023-08-06T02:08:43;10.70;99.90
20726;DHT22;10524;48.132;8.518;2023-08-06T02:11:08;10.80;99.90
20726;DHT22;10524;48.132;8.518;2023-08-06T02:13:34;10.80;99.90
20726;DHT22;10524;48.132;8.518;2023-08-06T02:15:59;10.80;99.90
20726;DHT22;10524;48.132;8.518;2023-08-06T02:18:25;10.90;99.90
20726;DHT22;10524;48.132;8.518;2023-08-06T02:21:00;11.00;99.90
20726;DHT22;10524;48.132;8.518;2023-08-06T02:23:26;11.20;99.90
20726;DHT22;10524;48.132;8.518;2023-08-06T02:26:03;11.40;99.90
20726;DHT22;10524;48.132;8.518;2023-08-06T02:28:32;11.50;99.90
20726;DHT22;10524;48.132;8.518;2023-08-06T02:30:58;11.60;99.90
20726;DHT22;10524;48.132;8.518;2023-08-06T02:33:24;11.60;99.90
20726;DHT22;10524;48.132;8.518;2023-08-06T02:35:49;11.60;99.90
20726;DHT22;10524;48.132;8.518;2023-08-06T02:38:15;11.60;99.90
20726;DHT22;10524;48.132;8.518;2023-08-06T02:40:47;11.70;99.90
20726;DHT22;10524;48.132;8.518;2023-08-06T02:43:13;11.70;99.90
20726;DHT22;10524;48.132;8.518;2023-08-06T02:45:39;11.70;99.90
20726;DHT22;10524;48.132;8.518;2023-08-06T02:48:05;11.80;99.90
20726;DHT22;10524;48.132;8.518;2023-08-06T02:50:31;11.90;99.90
20726;DHT22;10524;48.132;8.518;2023-08-06T02:52:56;11.80;99.90
20726;DHT22;10524;48.132;8.518;2023-08-06T02:55:22;11.80;99.90
20726;DHT22;10524;48.132;8.518;2023-08-06T02:57:47;11.90;99.90
20726;DHT22;10524;48.132;8.518;2023-08-06T03:00:13;11.90;99.90
20726;DHT22;10524;48.132;8.518;2023-08-06T03:02:39;11.80;99.90
20726;DHT22;10524;48.132;8.518;2023-08-06T03:05:05;11.90;99.90
20726;DHT22;10524;48.132;8.518;2023-08-06T03:07:31;11.90;99.90
20726;DHT22;10524;48.132;8.518;2023-08-06T03:09:59;11.80;99.90
20726;DHT22;10524;48.132;8.518;2023-08-06T03:12:26;11.80;99.90
20726;DHT22;10524;48.132;8.518;2023-08-06T03:14:52;11.80;99.90
20726;DHT22;10524;48.132;8.518;2023-08-06T03:17:18;11.80;99.90
20726;DHT22;10524;48.132;8.518;2023-08-06T03:19:43;11.80;99.90
20726;DHT22;10524;48.132;8.518;2023-08-06T03:22:09;11.80;99.90
20726;DHT22;10524;48.132;8.518;2023-08-06T03:24:35;11.80;99.90
20726;DHT22;10524;48.132;8.518;2023-08-06T03:27:00;11.80;99.90
20726;DHT22;10524;48.132;8.518;2023-08-06T03:29:26;11.70;99.90
20726;DHT22;10524;48.132;8.518;2023-08-06T03:31:52;11.70;99.90
20726;DHT22;10524;48.132;8.518;2023-08-06T03:34:17;11.60;99.90
20726;DHT22;10524;48.132;8.518;2023-08-06T03:36:43;11.50;99.90
20726;DHT22;10524;48.132;8.518;2023-08-06T03:39:09;11.40;99.90
20726;DHT22;10524;48.132;8.518;2023-08-06T03:41:34;11.30;99.90
20726;DHT22;10524;48.132;8.518;2023-08-06T03:44:00;11.30;99.90
20726;DHT22;10524;48.132;8.518;2023-08-06T03:46:28;11.20;99.90
20726;DHT22;10524;48.132;8.518;2023-08-06T03:48:53;11.10;99.90
20726;DHT22;10524;48.132;8.518;2023-08-06T03:51:19;11.00;99.90
20726;DHT22;10524;48.132;8.518;2023-08-06T03:53:45;11.00;99.90
20726;DHT22;10524;48.132;8.518;2023-08-06T03:56:10;10.90;99.90
20726;DHT22;10524;48.132;8.518;2023-08-06T03:58:36;10.80;99.90
20726;DHT22;10524;48.132;8.518;2023-08-06T04:01:03;10.80;99.90
20726;DHT22;10524;48.132;8.518;2023-08-06T04:03:29;10.80;99.90
20726;DHT22;10524;48.132;8.518;2023-08-06T04:05:55;10.60;99.90
20726;DHT22;10524;48.132;8.518;2023-08-06T04:08:20;10.60;99.90
20726;DHT22;10524;48.132;8.518;2023-08-06T04:10:50;10.60;99.90
20726;DHT22;10524;48.132;8.518;2023-08-06T04:13:16;10.60;99.90
20726;DHT22;10524;48.132;8.518;2023-08-06T04:15:41;10.60;99.90
20726;DHT22;10524;48.132;8.518;2023-08-06T04:18:07;10.50;99.90
20726;DHT22;10524;48.132;8.518;2023-08-06T04:20:33;10.40;99.90
20726;DHT22;10524;48.132;8.518;2023-08-06T04:22:58;10.40;99.90
20726;DHT22;10524;48.132;8.518;2023-08-06T04:25:24;10.20;99.90
20726;DHT22;10524;48.132;8.518;2023-08-06T04:27:50;10.20;99.90
20726;DHT22;10524;48.132;8.518;2023-08-06T04:30:16;10.30;99.90
20726;DHT22;10524;48.132;8.518;2023-08-06T04:32:41;10.30;99.90
20726;DHT22;10524;48.132;8.518;2023-08-06T04:35:07;10.40;99.90
20726;DHT22;10524;48.132;8.518;2023-08-06T04:37:33;10.40;99.90
20726;DHT22;10524;48.132;8.518;2023-08-06T04:39:58;10.40;99.90
20726;DHT22;10524;48.132;8.518;2023-08-06T04:42:24;10.50;99.90
20726;DHT22;10524;48.132;8.518;2023-08-06T04:44:50;10.50;99.90
20726;DHT22;10524;48.132;8.518;2023-08-06T04:47:16;10.40;99.90
20726;DHT22;10524;48.132;8.518;2023-08-06T04:49:42;10.40;99.90
20726;DHT22;10524;48.132;8.518;2023-08-06T04:52:07;10.40;99.90
20726;DHT22;10524;48.132;8.518;2023-08-06T04:54:33;10.40;99.90
20726;DHT22;10524;48.132;8.518;2023-08-06T04:56:59;10.70;99.90
20726;DHT22;10524;48.132;8.518;2023-08-06T04:59:25;11.10;99.90
20726;DHT22;10524;48.132;8.518;2023-08-06T05:01:50;11.40;99.90
20726;DHT22;10524;48.132;8.518;2023-08-06T05:04:16;11.60;99.90
20726;DHT22;10524;48.132;8.518;2023-08-06T05:06:41;11.60;99.90
20726;DHT22;10524;48.132;8.518;2023-08-06T05:09:07;11.50;99.90
20726;DHT22;10524;48.132;8.518;2023-08-06T05:11:33;11.40;99.90
20726;DHT22;10524;48.132;8.518;2023-08-06T05:13:58;11.20;99.90
20726;DHT22;10524;48.132;8.518;2023-08-06T05:16:24;11.20;99.90
20726;DHT22;10524;48.132;8.518;2023-08-06T05:18:49;11.20;99.90
20726;DHT22;10524;48.132;8.518;2023-08-06T05:21:15;11.20;99.90
20726;DHT22;10524;48.132;8.518;2023-08-06T05:23:42;11.20;99.90
20726;DHT22;10524;48.132;8.518;2023-08-06T05:26:07;11.20;99.90
20726;DHT22;10524;48.132;8.518;2023-08-06T05:28:34;11.20;99.90
20726;DHT22;10524;48.132;8.518;2023-08-06T05:31:05;11.20;99.90
20726;DHT22;10524;48.132;8.518;2023-08-06T05:33:31;11.20;99.90
20726;DHT22;10524;48.132;8.518;2023-08-06T05:35:56;11.10;99.90
20726;DHT22;10524;48.132;8.518;2023-08-06T05:38:22;11.20;99.90
20726;DHT22;10524;48.132;8.518;2023-08-06T05:40:47;11.30;99.90
20726;DHT22;10524;48.132;8.518;2023-08-06T05:43:14;11.40;99.90
20726;DHT22;10524;48.132;8.518;2023-08-06T05:45:44;11.70;99.90
20726;DHT22;10524;48.132;8.518;2023-08-06T05:48:10;12.00;99.90
20726;DHT22;10524;48.132;8.518;2023-08-06T05:50:36;12.40;99.90
20726;DHT22;10524;48.132;8.518;2023-08-06T05:53:01;12.30;99.90
20726;DHT22;10524;48.132;8.518;2023-08-06T05:55:27;12.10;99.90
20726;DHT22;10524;48.132;8.518;2023-08-06T05:57:53;11.90;99.90
20726;DHT22;10524;48.132;8.518;2023-08-06T06:00:18;11.70;99.90
20726;DHT22;10524;48.132;8.518;2023-08-06T06:02:45;11.70;99.90
20726;DHT22;10524;48.132;8.518;2023-08-06T06:05:11;11.70;99.90
20726;DHT22;10524;48.132;8.518;2023-08-06T06:07:36;11.60;99.90
20726;DHT22;10524;48.132;8.518;2023-08-06T06:10:02;11.50;99.90
20726;DHT22;10524;48.132;8.518;2023-08-06T06:12:28;11.40;99.90
20726;DHT22;10524;48.132;8.518;2023-08-06T06:14:54;11.30;99.90
20726;DHT22;10524;48.132;8.518;2023-08-06T06:17:19;11.30;99.90
20726;DHT22;10524;48.132;8.518;2023-08-06T06:19:45;11.30;99.90
20726;DHT22;10524;48.132;8.518;2023-08-06T06:22:10;11.40;99.90
20726;DHT22;10524;48.132;8.518;2023-08-06T06:24:36;11.40;99.90
20726;DHT22;10524;48.132;8.518;2023-08-06T06:27:02;11.40;99.90
20726;DHT22;10524;48.132;8.518;2023-08-06T06:29:27;11.40;99.90
20726;DHT22;10524;48.132;8.518;2023-08-06T06:31:53;11.40;99.90
20726;DHT22;10524;48.132;8.518;2023-08-06T06:34:19;11.50;99.90
20726;DHT22;10524;48.132;8.518;2023-08-06T06:36:44;11.70;99.90
20726;DHT22;10524;48.132;8.518;2023-08-06T06:39:10;11.80;99.90
20726;DHT22;10524;48.132;8.518;2023-08-06T06:41:35;11.70;99.90
20726;DHT22;10524;48.132;8.518;2023-08-06T06:44:01;11.80;99.90
20726;DHT22;10524;48.132;8.518;2023-08-06T06:46:27;11.90;99.90
20726;DHT22;10524;48.132;8.518;2023-08-06T06:48:52;11.90;99.90
20726;DHT22;10524;48.132;8.518;2023-08-06T06:51:18;12.00;99.90
20726;DHT22;10524;48.132;8.518;2023-08-06T06:53:43;12.00;99.90
20726;DHT22;10524;48.132;8.518;2023-08-06T06:56:09;12.40;99.90
20726;DHT22;10524;48.132;8.518;2023-08-06T06:58:35;12.70;99.90
20726;DHT22;10524;48.132;8.518;2023-08-06T07:01:00;12.80;99.90
20726;DHT22;10524;48.132;8.518;2023-08-06T07:03:26;12.80;99.90
20726;DHT22;10524;48.132;8.518;2023-08-06T07:05:56;12.80;99.90
20726;DHT22;10524;48.132;8.518;2023-08-06T07:08:22;12.70;99.90
20726;DHT22;10524;48.132;8.518;2023-08-06T07:10:47;12.50;99.90
20726;DHT22;10524;48.132;8.518;2023-08-06T07:13:13;12.20;99.90
20726;DHT22;10524;48.132;8.518;2023-08-06T07:15:39;11.90;99.90
20726;DHT22;10524;48.132;8.518;2023-08-06T07:18:04;11.70;99.90
20726;DHT22;10524;48.132;8.518;2023-08-06T07:20:30;11.60;99.90
20726;DHT22;10524;48.132;8.518;2023-08-06T07:22:58;11.60;99.90
20726;DHT22;10524;48.132;8.518;2023-08-06T07:25:24;11.70;99.90
20726;DHT22;10524;48.132;8.518;2023-08-06T07:27:50;11.70;99.90
20726;DHT22;10524;48.132;8.518;2023-08-06T07:30:15;11.50;99.90
20726;DHT22;10524;48.132;8.518;2023-08-06T07:32:41;11.60;99.90
20726;DHT22;10524;48.132;8.518;2023-08-06T07:35:07;11.60;99.90
20726;DHT22;10524;48.132;8.518;2023-08-06T07:37:34;11.60;99.90
20726;DHT22;10524;48.132;8.518;2023-08-06T07:40:00;11.50;99.90
20726;DHT22;10524;48.132;8.518;2023-08-06T07:42:26;11.50;99.90
20726;DHT22;10524;48.132;8.518;2023-08-06T07:44:53;11.40;99.90
20726;DHT22;10524;48.132;8.518;2023-08-06T07:47:19;11.50;99.90
20726;DHT22;10524;48.132;8.518;2023-08-06T07:49:45;11.80;99.90
20726;DHT22;10524;48.132;8.518;2023-08-06T07:52:10;11.70;99.90
20726;DHT22;10524;48.132;8.518;2023-08-06T07:54:36;11.70;99.90
20726;DHT22;10524;48.132;8.518;2023-08-06T07:57:02;11.70;99.90
20726;DHT22;10524;48.132;8.518;2023-08-06T07:59:27;11.80;99.90
20726;DHT22;10524;48.132;8.518;2023-08-06T08:01:53;11.80;99.90
20726;DHT22;10524;48.132;8.518;2023-08-06T08:04:19;11.90;99.90
20726;DHT22;10524;48.132;8.518;2023-08-06T08:06:44;11.80;99.90
20726;DHT22;10524;48.132;8.518;2023-08-06T08:09:10;11.70;99.90
20726;DHT22;10524;48.132;8.518;2023-08-06T08:11:36;11.90;99.90
20726;DHT22;10524;48.132;8.518;2023-08-06T08:14:01;12.00;99.90
20726;DHT22;10524;48.132;8.518;2023-08-06T08:16:28;11.90;99.90
20726;DHT22;10524;48.132;8.518;2023-08-06T08:18:53;11.70;99.90
20726;DHT22;10524;48.132;8.518;2023-08-06T08:21:19;11.70;99.90
20726;DHT22;10524;48.132;8.518;2023-08-06T08:23:45;11.80;99.90
20726;DHT22;10524;48.132;8.518;2023-08-06T08:26:10;11.90;99.90
20726;DHT22;10524;48.132;8.518;2023-08-06T08:28:36;12.20;99.90
20726;DHT22;10524;48.132;8.518;2023-08-06T08:31:01;12.40;99.90
20726;DHT22;10524;48.132;8.518;2023-08-06T08:33:27;13.00;99.90
20726;DHT22;10524;48.132;8.518;2023-08-06T08:35:53;12.80;99.90
20726;DHT22;10524;48.132;8.518;2023-08-06T08:38:18;12.60;99.90
20726;DHT22;10524;48.132;8.518;2023-08-06T08:40:46;12.80;99.90
20726;DHT22;10524;48.132;8.518;2023-08-06T08:43:15;13.10;99.90
20726;DHT22;10524;48.132;8.518;2023-08-06T08:45:42;13.30;99.90
20726;DHT22;10524;48.132;8.518;2023-08-06T08:48:10;13.40;99.90
20726;DHT22;10524;48.132;8.518;2023-08-06T08:50:37;13.20;99.90
20726;DHT22;10524;48.132;8.518;2023-08-06T08:53:04;12.90;99.90
20726;DHT22;10524;48.132;8.518;2023-08-06T08:55:31;12.70;99.90
20726;DHT22;10524;48.132;8.518;2023-08-06T08:57:57;12.70;99.90
20726;DHT22;10524;48.132;8.518;2023-08-06T09:00:22;12.90;99.90
20726;DHT22;10524;48.132;8.518;2023-08-06T09:02:49;12.90;99.90
20726;DHT22;10524;48.132;8.518;2023-08-06T09:05:16;13.20;99.90
20726;DHT22;10524;48.132;8.518;2023-08-06T09:07:47;13.20;99.90
20726;DHT22;10524;48.132;8.518;2023-08-06T09:10:14;13.40;99.90
20726;DHT22;10524;48.132;8.518;2023-08-06T09:12:43;13.50;99.90
20726;DHT22;10524;48.132;8.518;2023-08-06T09:15:10;13.50;99.90
20726;DHT22;10524;48.132;8.518;2023-08-06T09:17:36;13.70;99.90
20726;DHT22;10524;48.132;8.518;2023-08-06T09:20:14;13.60;99.90
20726;DHT22;10524;48.132;8.518;2023-08-06T09:22:40;13.60;99.90
20726;DHT22;10524;48.132;8.518;2023-08-06T09:25:07;13.90;99.90
20726;DHT22;10524;48.132;8.518;2023-08-06T09:27:37;14.00;99.90
20726;DHT22;10524;48.132;8.518;2023-08-06T09:30:03;13.50;99.90
20726;DHT22;10524;48.132;8.518;2023-08-06T09:32:48;13.30;99.90
20726;DHT22;10524;48.132;8.518;2023-08-06T09:35:19;13.10;99.90
20726;DHT22;10524;48.132;8.518;2023-08-06T09:37:45;13.00;99.90
20726;DHT22;10524;48.132;8.518;2023-08-06T09:40:28;12.90;99.90
20726;DHT22;10524;48.132;8.518;2023-08-06T09:42:54;13.00;99.90
20726;DHT22;10524;48.132;8.518;2023-08-06T09:45:21;13.20;99.90
20726;DHT22;10524;48.132;8.518;2023-08-06T09:47:50;13.40;99.90
20726;DHT22;10524;48.132;8.518;2023-08-06T09:50:20;13.40;99.90
20726;DHT22;10524;48.132;8.518;2023-08-06T09:52:50;13.50;99.90
20726;DHT22;10524;48.132;8.518;2023-08-06T09:55:18;13.80;99.90
20726;DHT22;10524;48.132;8.518;2023-08-06T09:57:44;13.50;99.90
20726;DHT22;10524;48.132;8.518;2023-08-06T10:00:11;13.30;99.90
20726;DHT22;10524;48.132;8.518;2023-08-06T10:02:38;13.20;99.90
20726;DHT22;10524;48.132;8.518;2023-08-06T10:05:07;13.20;99.90
20726;DHT22;10524;48.132;8.518;2023-08-06T10:07:33;13.10;99.90
20726;DHT22;10524;48.132;8.518;2023-08-06T10:10:00;13.30;99.90
20726;DHT22;10524;48.132;8.518;2023-08-06T10:12:28;13.70;99.90
20726;DHT22;10524;48.132;8.518;2023-08-06T10:14:56;13.60;99.90
20726;DHT22;10524;48.132;8.518;2023-08-06T10:17:23;13.50;99.90
20726;DHT22;10524;48.132;8.518;2023-08-06T10:19:50;13.00;99.90
20726;DHT22;10524;48.132;8.518;2023-08-06T10:22:17;13.00;99.90
20726;DHT22;10524;48.132;8.518;2023-08-06T10:24:52;13.00;99.90
20726;DHT22;10524;48.132;8.518;2023-08-06T10:27:21;12.90;99.90
20726;DHT22;10524;48.132;8.518;2023-08-06T10:29:47;13.10;99.90
20726;DHT22;10524;48.132;8.518;2023-08-06T10:32:14;13.10;99.90
20726;DHT22;10524;48.132;8.518;2023-08-06T10:34:59;13.20;99.90
20726;DHT22;10524;48.132;8.518;2023-08-06T10:37:38;13.50;99.90
20726;DHT22;10524;48.132;8.518;2023-08-06T10:40:05;13.50;99.90
20726;DHT22;10524;48.132;8.518;2023-08-06T10:42:32;13.80;99.90
20726;DHT22;10524;48.132;8.518;2023-08-06T10:45:13;14.00;99.90
20726;DHT22;10524;48.132;8.518;2023-08-06T10:47:40;13.80;99.90
20726;DHT22;10524;48.132;8.518;2023-08-06T10:50:11;14.00;99.90
20726;DHT22;10524;48.132;8.518;2023-08-06T10:52:37;13.80;99.90
20726;DHT22;10524;48.132;8.518;2023-08-06T10:55:04;13.70;99.90
20726;DHT22;10524;48.132;8.518;2023-08-06T10:57:29;13.60;99.90
20726;DHT22;10524;48.132;8.518;2023-08-06T10:59:55;13.40;99.90
20726;DHT22;10524;48.132;8.518;2023-08-06T11:02:21;13.60;99.90
20726;DHT22;10524;48.132;8.518;2023-08-06T11:04:48;13.70;99.90
20726;DHT22;10524;48.132;8.518;2023-08-06T11:07:13;13.70;99.90
20726;DHT22;10524;48.132;8.518;2023-08-06T11:09:39;13.70;99.90
20726;DHT22;10524;48.132;8.518;2023-08-06T11:12:11;13.90;99.90
20726;DHT22;10524;48.132;8.518;2023-08-06T11:14:37;13.90;99.90
20726;DHT22;10524;48.132;8.518;2023-08-06T11:17:05;13.60;99.90
20726;DHT22;10524;48.132;8.518;2023-08-06T11:19:31;13.50;99.90
20726;DHT22;10524;48.132;8.518;2023-08-06T11:21:57;13.30;99.90
20726;DHT22;10524;48.132;8.518;2023-08-06T11:24:24;13.10;99.90
20726;DHT22;10524;48.132;8.518;2023-08-06T11:26:49;13.00;99.90
20726;DHT22;10524;48.132;8.518;2023-08-06T11:29:16;13.10;99.90
20726;DHT22;10524;48.132;8.518;2023-08-06T11:31:41;13.00;99.90
20726;DHT22;10524;48.132;8.518;2023-08-06T11:34:07;12.90;99.90
20726;DHT22;10524;48.132;8.518;2023-08-06T11:36:34;12.80;99.90
20726;DHT22;10524;48.132;8.518;2023-08-06T11:39:02;12.70;99.90
20726;DHT22;10524;48.132;8.518;2023-08-06T11:41:32;12.70;99.90
20726;DHT22;10524;48.132;8.518;2023-08-06T11:44:01;12.50;99.90
20726;DHT22;10524;48.132;8.518;2023-08-06T11:46:26;12.70;99.90
20726;DHT22;10524;48.132;8.518;2023-08-06T11:48:55;12.70;99.90
20726;DHT22;10524;48.132;8.518;2023-08-06T11:51:27;12.90;99.90
20726;DHT22;10524;48.132;8.518;2023-08-06T11:53:57;12.90;99.90
20726;DHT22;10524;48.132;8.518;2023-08-06T11:56:24;12.80;99.90
20726;DHT22;10524;48.132;8.518;2023-08-06T11:58:51;12.80;99.90
20726;DHT22;10524;48.132;8.518;2023-08-06T12:01:18;12.90;99.90
20726;DHT22;10524;48.132;8.518;2023-08-06T12:03:43;13.30;99.90
20726;DHT22;10524;48.132;8.518;2023-08-06T12:06:09;13.20;99.90
20726;DHT22;10524;48.132;8.518;2023-08-06T12:08:34;12.90;99.90
20726;DHT22;10524;48.132;8.518;2023-08-06T12:11:00;13.00;99.90
20726;DHT22;10524;48.132;8.518;2023-08-06T12:13:26;13.30;99.90
20726;DHT22;10524;48.132;8.518;2023-08-06T12:15:53;13.60;99.90
20726;DHT22;10524;48.132;8.518;2023-08-06T12:18:19;13.70;99.90
20726;DHT22;10524;48.132;8.518;2023-08-06T12:20:45;13.90;99.90
20726;DHT22;10524;48.132;8.518;2023-08-06T12:23:10;13.90;99.90
20726;DHT22;10524;48.132;8.518;2023-08-06T12:25:41;14.30;99.90
20726;DHT22;10524;48.132;8.518;2023-08-06T12:28:06;15.10;99.90
20726;DHT22;10524;48.132;8.518;2023-08-06T12:30:33;15.70;99.90
20726;DHT22;10524;48.132;8.518;2023-08-06T12:32:58;16.10;99.90
20726;DHT22;10524;48.132;8.518;2023-08-06T12:35:24;17.20;99.90
20726;DHT22;10524;48.132;8.518;2023-08-06T12:37:51;17.90;99.90
20726;DHT22;10524;48.132;8.518;2023-08-06T12:40:20;18.70;99.90
20726;DHT22;10524;48.132;8.518;2023-08-06T12:42:45;19.70;99.90
20726;DHT22;10524;48.132;8.518;2023-08-06T12:45:11;20.10;99.90
20726;DHT22;10524;48.132;8.518;2023-08-06T12:47:37;20.00;99.90
20726;DHT22;10524;48.132;8.518;2023-08-06T12:50:03;20.00;99.90
20726;DHT22;10524;48.132;8.518;2023-08-06T12:52:28;18.60;99.90
20726;DHT22;10524;48.132;8.518;2023-08-06T12:54:54;17.70;99.90
20726;DHT22;10524;48.132;8.518;2023-08-06T12:57:20;16.80;99.90
20726;DHT22;10524;48.132;8.518;2023-08-06T12:59:46;17.30;99.90
20726;DHT22;10524;48.132;8.518;2023-08-06T13:02:11;17.80;99.90
20726;DHT22;10524;48.132;8.518;2023-08-06T13:04:37;18.00;99.90
20726;DHT22;10524;48.132;8.518;2023-08-06T13:07:03;17.30;99.90
20726;DHT22;10524;48.132;8.518;2023-08-06T13:09:29;16.80;99.90
20726;DHT22;10524;48.132;8.518;2023-08-06T13:11:56;16.30;99.90
20726;DHT22;10524;48.132;8.518;2023-08-06T13:14:21;15.70;99.90
20726;DHT22;10524;48.132;8.518;2023-08-06T13:16:47;15.20;99.90
20726;DHT22;10524;48.132;8.518;2023-08-06T13:19:13;14.40;99.90
20726;DHT22;10524;48.132;8.518;2023-08-06T13:24:07;14.00;99.90
20726;DHT22;10524;48.132;8.518;2023-08-06T13:26:34;14.00;99.90
20726;DHT22;10524;48.132;8.518;2023-08-06T13:29:00;15.60;99.90
20726;DHT22;10524;48.132;8.518;2023-08-06T13:31:27;16.60;99.90
20726;DHT22;10524;48.132;8.518;2023-08-06T13:33:54;16.10;99.90
20726;DHT22;10524;48.132;8.518;2023-08-06T13:36:21;15.70;99.90
20726;DHT22;10524;48.132;8.518;2023-08-06T13:38:47;15.10;99.90
20726;DHT22;10524;48.132;8.518;2023-08-06T13:41:12;14.80;99.90
20726;DHT22;10524;48.132;8.518;2023-08-06T13:43:38;14.20;99.90
20726;DHT22;10524;48.132;8.518;2023-08-06T13:46:04;14.00;99.90
20726;DHT22;10524;48.132;8.518;2023-08-06T13:48:30;13.90;99.90
20726;DHT22;10524;48.132;8.518;2023-08-06T13:50:56;13.60;99.90
20726;DHT22;10524;48.132;8.518;2023-08-06T13:53:22;13.30;99.90
20726;DHT22;10524;48.132;8.518;2023-08-06T13:55:47;13.20;99.90
20726;DHT22;10524;48.132;8.518;2023-08-06T13:58:13;14.10;99.90
20726;DHT22;10524;48.132;8.518;2023-08-06T14:00:39;14.20;99.90
20726;DHT22;10524;48.132;8.518;2023-08-06T14:03:04;13.80;99.90
20726;DHT22;10524;48.132;8.518;2023-08-06T14:05:30;13.30;99.90
20726;DHT22;10524;48.132;8.518;2023-08-06T14:07:55;13.10;99.90
20726;DHT22;10524;48.132;8.518;2023-08-06T14:10:21;13.30;99.90
20726;DHT22;10524;48.132;8.518;2023-08-06T14:12:47;13.40;99.90
20726;DHT22;10524;48.132;8.518;2023-08-06T14:15:13;13.20;99.90
20726;DHT22;10524;48.132;8.518;2023-08-06T14:17:38;13.10;99.90
20726;DHT22;10524;48.132;8.518;2023-08-06T14:20:05;13.10;99.90
20726;DHT22;10524;48.132;8.518;2023-08-06T14:22:33;13.30;99.90
20726;DHT22;10524;48.132;8.518;2023-08-06T14:24:59;14.00;99.90
20726;DHT22;10524;48.132;8.518;2023-08-06T14:27:25;13.80;99.90
20726;DHT22;10524;48.132;8.518;2023-08-06T14:29:51;14.00;99.90
20726;DHT22;10524;48.132;8.518;2023-08-06T14:32:16;15.40;99.90
20726;DHT22;10524;48.132;8.518;2023-08-06T14:34:43;15.90;99.90
20726;DHT22;10524;48.132;8.518;2023-08-06T14:37:09;16.90;99.90
20726;DHT22;10524;48.132;8.518;2023-08-06T14:39:35;17.70;99.90
20726;DHT22;10524;48.132;8.518;2023-08-06T14:42:01;18.90;99.90
20726;DHT22;10524;48.132;8.518;2023-08-06T14:44:27;19.60;99.90
20726;DHT22;10524;48.132;8.518;2023-08-06T14:46:53;19.70;99.90
20726;DHT22;10524;48.132;8.518;2023-08-06T14:49:18;19.20;99.90
20726;DHT22;10524;48.132;8.518;2023-08-06T14:51:44;18.30;99.90
20726;DHT22;10524;48.132;8.518;2023-08-06T14:54:10;17.40;99.90
20726;DHT22;10524;48.132;8.518;2023-08-06T14:56:36;16.10;99.90
20726;DHT22;10524;48.132;8.518;2023-08-06T14:59:01;14.80;99.90
20726;DHT22;10524;48.132;8.518;2023-08-06T15:01:27;13.90;99.90
20726;DHT22;10524;48.132;8.518;2023-08-06T15:03:54;13.80;99.90
20726;DHT22;10524;48.132;8.518;2023-08-06T15:06:19;13.80;99.90
20726;DHT22;10524;48.132;8.518;2023-08-06T15:08:45;13.90;99.90
20726;DHT22;10524;48.132;8.518;2023-08-06T15:11:13;14.10;99.90
20726;DHT22;10524;48.132;8.518;2023-08-06T15:13:40;14.60;99.90
20726;DHT22;10524;48.132;8.518;2023-08-06T15:16:06;15.10;99.90
20726;DHT22;10524;48.132;8.518;2023-08-06T15:18:31;15.90;99.90
20726;DHT22;10524;48.132;8.518;2023-08-06T15:20:57;16.20;99.90
20726;DHT22;10524;48.132;8.518;2023-08-06T15:23:23;16.40;99.90
20726;DHT22;10524;48.132;8.518;2023-08-06T15:25:49;16.60;99.90
20726;DHT22;10524;48.132;8.518;2023-08-06T15:28:15;16.80;99.90